sensor_id;sensor_type;location;lat;lon;timestamp;pressure;altitude;pressure_sealevel;temperature;humidity
57192;BME280;43052;52.588;13.396;2022-12-18T00:00:58;102853.78;;;-3.71;70.33
57192;BME280;43052;52.588;13.396;2022-12-18T00:03:24;102847.88;;;-3.81;70.42
57192;BME280;43052;52.588;13.396;2022-12-18T00:05:51;102855.03;;;-3.87;70.43
57192;BME280;43052;52.588;13.396;2022-12-18T00:08:17;102854.88;;;-3.99;70.60
57192;BME280;43052;52.588;13.396;2022-12-18T00:10:44;102853.16;;;-4.09;70.65
57192;BME280;43052;52.588;13.396;2022-12-18T00:13:10;102857.91;;;-4.03;70.71
57192;BME280;43052;52.588;13.396;2022-12-18T00:15:37;102856.78;;;-3.96;70.28
57192;BME280;43052;52.588;13.396;2022-12-18T00:18:03;102861.78;;;-3.98;70.49
57192;BME280;43052;52.588;13.396;2022-12-18T00:20:29;102862.13;;;-4.03;70.50
57192;BME280;43052;52.588;13.396;2022-12-18T00:22:54;102858.00;;;-4.12;70.74
57192;BME280;43052;52.588;13.396;2022-12-18T00:25:20;102866.44;;;-4.13;70.47
57192;BME280;43052;52.588;13.396;2022-12-18T00:27:45;102861.31;;;-4.13;70.56
57192;BME280;43052;52.588;13.396;2022-12-18T00:30:11;102858.38;;;-4.17;70.79
57192;BME280;43052;52.588;13.396;2022-12-18T00:32:36;102862.44;;;-4.19;70.72
57192;BME280;43052;52.588;13.396;2022-12-18T00:35:03;102853.13;;;-4.19;70.84
57192;BME280;43052;52.588;13.396;2022-12-18T00:37:28;102860.97;;;-4.07;71.14
57192;BME280;43052;52.588;13.396;2022-12-18T00:39:53;102854.47;;;-4.03;70.90
57192;BME280;43052;52.588;13.396;2022-12-18T00:42:19;102848.84;;;-3.99;71.06
57192;BME280;43052;52.588;13.396;2022-12-18T00:45:02;102850.78;;;-3.97;70.66
57192;BME280;43052;52.588;13.396;2022-12-18T00:47:28;102850.00;;;-3.96;70.82
57192;BME280;43052;52.588;13.396;2022-12-18T00:49:53;102849.13;;;-3.96;71.09
57192;BME280;43052;52.588;13.396;2022-12-18T00:52:18;102847.31;;;-3.97;71.04
57192;BME280;43052;52.588;13.396;2022-12-18T00:54:44;102850.50;;;-4.00;71.14
57192;BME280;43052;52.588;13.396;2022-12-18T00:57:09;102849.47;;;-4.02;70.77
57192;BME280;43052;52.588;13.396;2022-12-18T00:59:34;102847.31;;;-3.97;70.67
57192;BME280;43052;52.588;13.396;2022-12-18T01:01:59;102846.78;;;-4.03;70.88
57192;BME280;43052;52.588;13.396;2022-12-18T01:04:25;102847.22;;;-4.18;71.21
57192;BME280;43052;52.588;13.396;2022-12-18T01:06:50;102849.13;;;-4.26;71.28
57192;BME280;43052;52.588;13.396;2022-12-18T01:09:15;102851.53;;;-4.27;71.02
57192;BME280;43052;52.588;13.396;2022-12-18T01:11:40;102855.03;;;-4.16;71.51
57192;BME280;43052;52.588;13.396;2022-12-18T01:14:06;102857.03;;;-4.03;71.47
57192;BME280;43052;52.588;13.396;2022-12-18T01:16:31;102860.38;;;-3.94;71.19
57192;BME280;43052;52.588;13.396;2022-12-18T01:18:56;102862.06;;;-3.84;71.45
57192;BME280;43052;52.588;13.396;2022-12-18T01:21:23;102871.28;;;-3.76;71.08
57192;BME280;43052;52.588;13.396;2022-12-18T01:23:53;102870.19;;;-3.69;71.24
57192;BME280;43052;52.588;13.396;2022-12-18T01:26:19;102883.84;;;-3.69;70.87
57192;BME280;43052;52.588;13.396;2022-12-18T01:28:44;102885.00;;;-3.75;71.17
57192;BME280;43052;52.588;13.396;2022-12-18T01:31:11;102892.63;;;-3.86;70.77
57192;BME280;43052;52.588;13.396;2022-12-18T01:33:37;102881.47;;;-3.97;70.94
57192;BME280;43052;52.588;13.396;2022-12-18T01:36:02;102879.25;;;-4.02;70.79
57192;BME280;43052;52.588;13.396;2022-12-18T01:38:28;102881.41;;;-4.07;71.30
57192;BME280;43052;52.588;13.396;2022-12-18T01:41:01;102881.38;;;-4.17;71.04
57192;BME280;43052;52.588;13.396;2022-12-18T01:43:52;102882.13;;;-4.18;71.23
57192;BME280;43052;52.588;13.396;2022-12-18T01:46:20;102889.56;;;-4.11;71.17
57192;BME280;43052;52.588;13.396;2022-12-18T01:48:53;102887.41;;;-4.06;70.88
57192;BME280;43052;52.588;13.396;2022-12-18T01:51:20;102887.53;;;-4.05;70.87
57192;BME280;43052;52.588;13.396;2022-12-18T01:53:46;102885.50;;;-4.09;71.02
57192;BME280;43052;52.588;13.396;2022-12-18T01:56:14;102882.19;;;-4.08;71.05
57192;BME280;43052;52.588;13.396;2022-12-18T01:59:00;102890.72;;;-4.07;70.81
57192;BME280;43052;52.588;13.396;2022-12-18T02:01:26;102894.03;;;-4.09;71.04
57192;BME280;43052;52.588;13.396;2022-12-18T02:03:51;102891.28;;;-4.01;71.09
57192;BME280;43052;52.588;13.396;2022-12-18T02:06:23;102889.50;;;-4.02;71.08
57192;BME280;43052;52.588;13.396;2022-12-18T02:09:10;102893.06;;;-4.00;70.71
57192;BME280;43052;52.588;13.396;2022-12-18T02:11:49;102897.56;;;-3.98;70.86
57192;BME280;43052;52.588;13.396;2022-12-18T02:14:40;102892.06;;;-3.92;70.74
57192;BME280;43052;52.588;13.396;2022-12-18T02:17:27;102900.13;;;-3.87;71.02
57192;BME280;43052;52.588;13.396;2022-12-18T02:20:20;102896.22;;;-3.84;70.79
57192;BME280;43052;52.588;13.396;2022-12-18T02:23:19;102898.63;;;-3.85;70.91
57192;BME280;43052;52.588;13.396;2022-12-18T02:26:07;102897.06;;;-3.94;70.61
57192;BME280;43052;52.588;13.396;2022-12-18T02:28:44;102898.81;;;-4.03;70.59
57192;BME280;43052;52.588;13.396;2022-12-18T02:31:17;102896.41;;;-4.01;70.58
57192;BME280;43052;52.588;13.396;2022-12-18T02:33:43;102905.06;;;-3.99;70.78
57192;BME280;43052;52.588;13.396;2022-12-18T02:36:10;102909.03;;;-4.03;70.43
57192;BME280;43052;52.588;13.396;2022-12-18T02:38:38;102909.19;;;-4.01;70.48
57192;BME280;43052;52.588;13.396;2022-12-18T02:41:05;102915.59;;;-3.96;70.74
57192;BME280;43052;52.588;13.396;2022-12-18T02:43:30;102913.50;;;-4.00;70.68
57192;BME280;43052;52.588;13.396;2022-12-18T02:45:58;102917.59;;;-4.02;70.73
57192;BME280;43052;52.588;13.396;2022-12-18T02:48:29;102917.69;;;-4.11;70.37
57192;BME280;43052;52.588;13.396;2022-12-18T02:51:29;102918.75;;;-4.28;70.18
57192;BME280;43052;52.588;13.396;2022-12-18T02:54:05;102920.53;;;-4.46;70.46
57192;BME280;43052;52.588;13.396;2022-12-18T02:56:38;102927.31;;;-4.47;70.37
57192;BME280;43052;52.588;13.396;2022-12-18T02:59:17;102912.41;;;-4.42;70.59
57192;BME280;43052;52.588;13.396;2022-12-18T03:02:22;102909.69;;;-4.44;70.35
57192;BME280;43052;52.588;13.396;2022-12-18T03:05:05;102910.84;;;-4.40;70.73
57192;BME280;43052;52.588;13.396;2022-12-18T03:07:40;102924.41;;;-4.41;70.27
57192;BME280;43052;52.588;13.396;2022-12-18T03:10:09;102919.34;;;-4.50;70.30
57192;BME280;43052;52.588;13.396;2022-12-18T03:12:41;102921.56;;;-4.63;70.34
57192;BME280;43052;52.588;13.396;2022-12-18T03:15:14;102924.88;;;-4.64;70.57
57192;BME280;43052;52.588;13.396;2022-12-18T03:17:48;102920.31;;;-4.58;70.46
57192;BME280;43052;52.588;13.396;2022-12-18T03:20:19;102920.75;;;-4.53;70.39
57192;BME280;43052;52.588;13.396;2022-12-18T03:22:47;102921.38;;;-4.56;70.36
57192;BME280;43052;52.588;13.396;2022-12-18T03:25:16;102918.81;;;-4.56;70.48
57192;BME280;43052;52.588;13.396;2022-12-18T03:27:47;102921.38;;;-4.56;70.64
57192;BME280;43052;52.588;13.396;2022-12-18T03:30:15;102919.44;;;-4.59;70.83
57192;BME280;43052;52.588;13.396;2022-12-18T03:32:46;102922.59;;;-4.61;70.51
57192;BME280;43052;52.588;13.396;2022-12-18T03:35:14;102925.75;;;-4.64;70.47
57192;BME280;43052;52.588;13.396;2022-12-18T03:37:41;102924.25;;;-4.62;70.80
57192;BME280;43052;52.588;13.396;2022-12-18T03:40:07;102922.25;;;-4.56;70.80
57192;BME280;43052;52.588;13.396;2022-12-18T03:42:48;102918.47;;;-4.50;70.75
57192;BME280;43052;52.588;13.396;2022-12-18T03:45:29;102917.56;;;-4.51;70.25
57192;BME280;43052;52.588;13.396;2022-12-18T03:48:19;102921.81;;;-4.60;70.03
57192;BME280;43052;52.588;13.396;2022-12-18T03:51:02;102932.03;;;-4.79;70.21
57192;BME280;43052;52.588;13.396;2022-12-18T03:53:38;102934.13;;;-5.03;70.52
57192;BME280;43052;52.588;13.396;2022-12-18T03:56:06;102935.41;;;-5.17;70.59
57192;BME280;43052;52.588;13.396;2022-12-18T03:58:34;102925.94;;;-5.18;70.66
57192;BME280;43052;52.588;13.396;2022-12-18T04:01:02;102925.19;;;-5.17;70.85
57192;BME280;43052;52.588;13.396;2022-12-18T04:03:29;102926.06;;;-5.16;70.95
57192;BME280;43052;52.588;13.396;2022-12-18T04:05:57;102935.06;;;-5.11;70.91
57192;BME280;43052;52.588;13.396;2022-12-18T04:08:25;102929.19;;;-5.10;70.92
57192;BME280;43052;52.588;13.396;2022-12-18T04:10:50;102932.09;;;-5.16;70.94
57192;BME280;43052;52.588;13.396;2022-12-18T04:13:42;102936.59;;;-5.22;71.24
57192;BME280;43052;52.588;13.396;2022-12-18T04:16:08;102937.09;;;-5.26;71.49
57192;BME280;43052;52.588;13.396;2022-12-18T04:18:34;102942.63;;;-5.30;71.25
57192;BME280;43052;52.588;13.396;2022-12-18T04:21:00;102943.81;;;-5.27;71.21
57192;BME280;43052;52.588;13.396;2022-12-18T04:23:25;102944.31;;;-5.31;71.32
57192;BME280;43052;52.588;13.396;2022-12-18T04:25:50;102953.81;;;-5.47;71.71
57192;BME280;43052;52.588;13.396;2022-12-18T04:28:15;102951.72;;;-5.52;71.67
57192;BME280;43052;52.588;13.396;2022-12-18T04:30:41;102941.50;;;-5.52;71.68
57192;BME280;43052;52.588;13.396;2022-12-18T04:33:11;102950.59;;;-5.36;71.84
57192;BME280;43052;52.588;13.396;2022-12-18T04:35:36;102949.72;;;-5.37;71.65
57192;BME280;43052;52.588;13.396;2022-12-18T04:38:02;102944.31;;;-5.31;71.57
57192;BME280;43052;52.588;13.396;2022-12-18T04:40:27;102949.69;;;-5.28;71.72
57192;BME280;43052;52.588;13.396;2022-12-18T04:42:52;102954.06;;;-5.36;71.61
57192;BME280;43052;52.588;13.396;2022-12-18T04:45:17;102949.16;;;-5.52;71.43
57192;BME280;43052;52.588;13.396;2022-12-18T04:47:43;102953.69;;;-5.67;71.60
57192;BME280;43052;52.588;13.396;2022-12-18T04:50:08;102946.34;;;-5.72;71.79
57192;BME280;43052;52.588;13.396;2022-12-18T04:52:33;102947.56;;;-5.69;71.72
57192;BME280;43052;52.588;13.396;2022-12-18T04:54:59;102946.22;;;-5.65;71.75
57192;BME280;43052;52.588;13.396;2022-12-18T04:57:24;102953.25;;;-5.62;72.05
57192;BME280;43052;52.588;13.396;2022-12-18T04:59:49;102955.31;;;-5.58;72.09
57192;BME280;43052;52.588;13.396;2022-12-18T05:02:14;102947.22;;;-5.54;71.72
57192;BME280;43052;52.588;13.396;2022-12-18T05:04:40;102960.69;;;-5.46;71.87
57192;BME280;43052;52.588;13.396;2022-12-18T05:07:05;102961.72;;;-5.36;71.90
57192;BME280;43052;52.588;13.396;2022-12-18T05:09:30;102959.13;;;-5.27;71.76
57192;BME280;43052;52.588;13.396;2022-12-18T05:11:55;102954.03;;;-5.27;71.87
57192;BME280;43052;52.588;13.396;2022-12-18T05:14:21;102969.31;;;-5.18;72.06
57192;BME280;43052;52.588;13.396;2022-12-18T05:16:46;102977.09;;;-5.08;72.07
57192;BME280;43052;52.588;13.396;2022-12-18T05:19:11;102978.53;;;-5.01;71.84
57192;BME280;43052;52.588;13.396;2022-12-18T05:21:36;102989.97;;;-5.06;71.91
57192;BME280;43052;52.588;13.396;2022-12-18T05:24:02;102993.59;;;-5.04;71.75
57192;BME280;43052;52.588;13.396;2022-12-18T05:26:27;102990.84;;;-5.06;71.65
57192;BME280;43052;52.588;13.396;2022-12-18T05:28:52;102991.59;;;-5.07;71.75
57192;BME280;43052;52.588;13.396;2022-12-18T05:31:17;102999.28;;;-5.07;71.30
57192;BME280;43052;52.588;13.396;2022-12-18T05:33:42;102998.38;;;-5.07;71.67
57192;BME280;43052;52.588;13.396;2022-12-18T05:36:08;102999.00;;;-5.10;71.44
57192;BME280;43052;52.588;13.396;2022-12-18T05:38:35;102998.56;;;-5.14;71.64
57192;BME280;43052;52.588;13.396;2022-12-18T05:41:02;103001.56;;;-5.19;71.71
57192;BME280;43052;52.588;13.396;2022-12-18T05:43:28;103000.56;;;-5.21;71.69
57192;BME280;43052;52.588;13.396;2022-12-18T05:45:54;103002.19;;;-5.21;71.86
57192;BME280;43052;52.588;13.396;2022-12-18T05:48:20;103008.34;;;-5.28;71.47
57192;BME280;43052;52.588;13.396;2022-12-18T05:50:46;103007.28;;;-5.21;71.51
57192;BME280;43052;52.588;13.396;2022-12-18T05:53:14;103001.75;;;-5.17;71.53
57192;BME280;43052;52.588;13.396;2022-12-18T05:55:41;103004.00;;;-5.20;71.36
57192;BME280;43052;52.588;13.396;2022-12-18T05:58:08;103000.06;;;-5.16;71.58
57192;BME280;43052;52.588;13.396;2022-12-18T06:00:35;103002.63;;;-5.16;71.31
57192;BME280;43052;52.588;13.396;2022-12-18T06:03:01;103007.72;;;-5.16;71.33
57192;BME280;43052;52.588;13.396;2022-12-18T06:05:27;103012.38;;;-5.21;71.20
57192;BME280;43052;52.588;13.396;2022-12-18T06:07:52;103021.72;;;-5.22;71.53
57192;BME280;43052;52.588;13.396;2022-12-18T06:10:17;103022.59;;;-5.21;71.42
57192;BME280;43052;52.588;13.396;2022-12-18T06:12:43;103021.59;;;-5.32;70.94
57192;BME280;43052;52.588;13.396;2022-12-18T06:15:08;103027.00;;;-5.46;70.96
57192;BME280;43052;52.588;13.396;2022-12-18T06:17:35;103018.31;;;-5.57;71.53
57192;BME280;43052;52.588;13.396;2022-12-18T06:20:00;103017.28;;;-5.59;71.77
57192;BME280;43052;52.588;13.396;2022-12-18T06:22:26;103016.97;;;-5.54;71.79
57192;BME280;43052;52.588;13.396;2022-12-18T06:24:52;103024.19;;;-5.49;71.70
57192;BME280;43052;52.588;13.396;2022-12-18T06:27:17;103025.19;;;-5.39;71.71
57192;BME280;43052;52.588;13.396;2022-12-18T06:29:42;103026.06;;;-5.29;72.06
57192;BME280;43052;52.588;13.396;2022-12-18T06:32:08;103038.47;;;-5.06;72.06
57192;BME280;43052;52.588;13.396;2022-12-18T06:34:33;103040.91;;;-4.80;72.35
57192;BME280;43052;52.588;13.396;2022-12-18T06:36:59;103039.28;;;-4.51;72.63
57192;BME280;43052;52.588;13.396;2022-12-18T06:39:24;103045.34;;;-4.60;72.46
57192;BME280;43052;52.588;13.396;2022-12-18T06:41:49;103051.31;;;-4.59;73.16
57192;BME280;43052;52.588;13.396;2022-12-18T06:44:15;103062.97;;;-4.44;73.79
57192;BME280;43052;52.588;13.396;2022-12-18T06:46:40;103064.31;;;-4.38;73.75
57192;BME280;43052;52.588;13.396;2022-12-18T06:49:05;103052.31;;;-4.48;73.77
57192;BME280;43052;52.588;13.396;2022-12-18T06:51:30;103061.53;;;-4.59;73.91
57192;BME280;43052;52.588;13.396;2022-12-18T06:53:56;103067.47;;;-4.69;73.83
57192;BME280;43052;52.588;13.396;2022-12-18T06:56:21;103074.56;;;-4.84;73.73
57192;BME280;43052;52.588;13.396;2022-12-18T06:58:47;103089.75;;;-4.85;73.84
57192;BME280;43052;52.588;13.396;2022-12-18T07:01:12;103083.44;;;-4.89;73.65
57192;BME280;43052;52.588;13.396;2022-12-18T07:03:39;103080.63;;;-4.92;73.24
57192;BME280;43052;52.588;13.396;2022-12-18T07:06:05;103071.50;;;-5.08;73.05
57192;BME280;43052;52.588;13.396;2022-12-18T07:08:31;103062.22;;;-5.16;72.72
57192;BME280;43052;52.588;13.396;2022-12-18T07:10:57;103063.56;;;-5.20;72.92
57192;BME280;43052;52.588;13.396;2022-12-18T07:13:22;103071.56;;;-5.25;72.88
57192;BME280;43052;52.588;13.396;2022-12-18T07:15:48;103068.56;;;-5.30;72.71
57192;BME280;43052;52.588;13.396;2022-12-18T07:18:13;103067.06;;;-5.37;72.54
57192;BME280;43052;52.588;13.396;2022-12-18T07:20:38;103076.22;;;-5.39;72.74
57192;BME280;43052;52.588;13.396;2022-12-18T07:23:04;103078.91;;;-5.46;72.45
57192;BME280;43052;52.588;13.396;2022-12-18T07:25:33;103088.97;;;-5.56;72.66
57192;BME280;43052;52.588;13.396;2022-12-18T07:27:58;103092.75;;;-5.61;72.51
57192;BME280;43052;52.588;13.396;2022-12-18T07:30:23;103081.19;;;-5.67;72.64
57192;BME280;43052;52.588;13.396;2022-12-18T07:32:48;103075.19;;;-5.76;73.11
57192;BME280;43052;52.588;13.396;2022-12-18T07:35:14;103076.53;;;-5.79;73.38
57192;BME280;43052;52.588;13.396;2022-12-18T07:37:39;103084.78;;;-5.82;73.20
57192;BME280;43052;52.588;13.396;2022-12-18T07:40:05;103079.69;;;-5.82;73.09
57192;BME280;43052;52.588;13.396;2022-12-18T07:42:31;103082.22;;;-5.82;73.47
57192;BME280;43052;52.588;13.396;2022-12-18T07:44:57;103082.84;;;-5.85;73.26
57192;BME280;43052;52.588;13.396;2022-12-18T07:47:22;103088.97;;;-5.91;73.57
57192;BME280;43052;52.588;13.396;2022-12-18T07:49:47;103087.78;;;-5.95;73.54
57192;BME280;43052;52.588;13.396;2022-12-18T07:52:13;103086.28;;;-5.93;73.71
57192;BME280;43052;52.588;13.396;2022-12-18T07:54:38;103073.38;;;-5.86;73.92
57192;BME280;43052;52.588;13.396;2022-12-18T07:57:05;103073.53;;;-5.75;73.54
57192;BME280;43052;52.588;13.396;2022-12-18T07:59:30;103085.69;;;-5.73;73.54
57192;BME280;43052;52.588;13.396;2022-12-18T08:01:55;103089.72;;;-5.75;73.22
57192;BME280;43052;52.588;13.396;2022-12-18T08:04:20;103091.53;;;-5.65;73.44
57192;BME280;43052;52.588;13.396;2022-12-18T08:06:46;103095.13;;;-5.45;73.62
57192;BME280;43052;52.588;13.396;2022-12-18T08:09:11;103087.31;;;-5.47;72.67
57192;BME280;43052;52.588;13.396;2022-12-18T08:11:36;103094.22;;;-5.55;73.06
57192;BME280;43052;52.588;13.396;2022-12-18T08:14:02;103101.28;;;-5.52;73.21
57192;BME280;43052;52.588;13.396;2022-12-18T08:16:27;103092.56;;;-5.45;73.41
57192;BME280;43052;52.588;13.396;2022-12-18T08:18:53;103088.06;;;-5.39;72.96
57192;BME280;43052;52.588;13.396;2022-12-18T08:21:24;103091.34;;;-5.31;73.01
57192;BME280;43052;52.588;13.396;2022-12-18T08:23:51;103105.91;;;-5.30;72.84
57192;BME280;43052;52.588;13.396;2022-12-18T08:26:17;103100.06;;;-5.29;72.65
57192;BME280;43052;52.588;13.396;2022-12-18T08:28:43;103106.03;;;-5.20;72.72
57192;BME280;43052;52.588;13.396;2022-12-18T08:31:08;103101.84;;;-5.28;72.33
57192;BME280;43052;52.588;13.396;2022-12-18T08:33:35;103097.34;;;-5.22;72.95
57192;BME280;43052;52.588;13.396;2022-12-18T08:36:02;103107.72;;;-5.21;72.57
57192;BME280;43052;52.588;13.396;2022-12-18T08:38:27;103099.75;;;-5.24;72.36
57192;BME280;43052;52.588;13.396;2022-12-18T08:41:00;103115.50;;;-5.28;72.35
57192;BME280;43052;52.588;13.396;2022-12-18T08:43:26;103117.16;;;-5.28;72.66
57192;BME280;43052;52.588;13.396;2022-12-18T08:46:11;103110.84;;;-5.23;72.56
57192;BME280;43052;52.588;13.396;2022-12-18T08:48:36;103115.03;;;-5.06;72.84
57192;BME280;43052;52.588;13.396;2022-12-18T08:51:02;103122.38;;;-5.09;71.83
57192;BME280;43052;52.588;13.396;2022-12-18T08:53:27;103123.47;;;-5.16;72.42
57192;BME280;43052;52.588;13.396;2022-12-18T08:55:53;103126.88;;;-5.07;72.68
57192;BME280;43052;52.588;13.396;2022-12-18T08:58:19;103128.84;;;-5.04;72.26
57192;BME280;43052;52.588;13.396;2022-12-18T09:00:44;103131.22;;;-4.97;72.35
57192;BME280;43052;52.588;13.396;2022-12-18T09:03:17;103137.81;;;-4.90;72.13
57192;BME280;43052;52.588;13.396;2022-12-18T09:05:43;103136.72;;;-4.83;72.07
57192;BME280;43052;52.588;13.396;2022-12-18T09:08:10;103141.84;;;-4.75;72.17
57192;BME280;43052;52.588;13.396;2022-12-18T09:10:44;103137.28;;;-4.60;72.12
57192;BME280;43052;52.588;13.396;2022-12-18T09:13:10;103136.78;;;-4.47;71.95
57192;BME280;43052;52.588;13.396;2022-12-18T09:15:47;103146.81;;;-4.39;71.45
57192;BME280;43052;52.588;13.396;2022-12-18T09:18:14;103150.97;;;-4.31;71.51
57192;BME280;43052;52.588;13.396;2022-12-18T09:20:40;103148.28;;;-4.33;71.37
57192;BME280;43052;52.588;13.396;2022-12-18T09:23:06;103147.94;;;-4.27;71.58
57192;BME280;43052;52.588;13.396;2022-12-18T09:25:32;103139.34;;;-4.19;71.24
57192;BME280;43052;52.588;13.396;2022-12-18T09:28:10;103137.38;;;-4.21;70.58
57192;BME280;43052;52.588;13.396;2022-12-18T09:30:47;103143.75;;;-4.35;70.39
57192;BME280;43052;52.588;13.396;2022-12-18T09:33:12;103142.25;;;-4.33;70.61
57192;BME280;43052;52.588;13.396;2022-12-18T09:35:39;103149.16;;;-4.23;70.42
57192;BME280;43052;52.588;13.396;2022-12-18T09:38:04;103150.91;;;-4.22;70.55
57192;BME280;43052;52.588;13.396;2022-12-18T09:40:40;103145.25;;;-4.29;70.36
57192;BME280;43052;52.588;13.396;2022-12-18T09:43:13;103135.50;;;-4.33;69.85
57192;BME280;43052;52.588;13.396;2022-12-18T09:45:43;103126.06;;;-4.43;70.00
57192;BME280;43052;52.588;13.396;2022-12-18T09:48:36;103124.50;;;-4.32;70.08
57192;BME280;43052;52.588;13.396;2022-12-18T09:51:19;103118.19;;;-4.27;70.16
57192;BME280;43052;52.588;13.396;2022-12-18T09:53:52;103113.50;;;-4.22;69.94
57192;BME280;43052;52.588;13.396;2022-12-18T09:56:20;103113.53;;;-4.03;69.96
57192;BME280;43052;52.588;13.396;2022-12-18T09:58:59;103111.91;;;-3.83;70.25
57192;BME280;43052;52.588;13.396;2022-12-18T10:01:26;103102.00;;;-3.70;69.77
57192;BME280;43052;52.588;13.396;2022-12-18T10:03:53;103093.38;;;-3.62;69.74
57192;BME280;43052;52.588;13.396;2022-12-18T10:06:43;103085.16;;;-3.68;69.35
57192;BME280;43052;52.588;13.396;2022-12-18T10:14:34;103080.16;;;-4.04;69.19
57192;BME280;43052;52.588;13.396;2022-12-18T10:17:16;103080.28;;;-4.03;69.78
57192;BME280;43052;52.588;13.396;2022-12-18T10:19:54;103085.06;;;-3.97;69.90
57192;BME280;43052;52.588;13.396;2022-12-18T10:22:47;103083.81;;;-3.92;69.60
57192;BME280;43052;52.588;13.396;2022-12-18T10:25:23;103086.31;;;-4.02;70.13
57192;BME280;43052;52.588;13.396;2022-12-18T10:27:55;103078.31;;;-3.97;70.25
57192;BME280;43052;52.588;13.396;2022-12-18T10:30:24;103083.81;;;-3.92;70.32
57192;BME280;43052;52.588;13.396;2022-12-18T10:32:49;103079.69;;;-3.81;70.60
57192;BME280;43052;52.588;13.396;2022-12-18T10:35:19;103072.66;;;-3.84;70.19
57192;BME280;43052;52.588;13.396;2022-12-18T10:38:06;103074.25;;;-3.75;70.69
57192;BME280;43052;52.588;13.396;2022-12-18T10:40:32;103068.16;;;-3.67;70.45
57192;BME280;43052;52.588;13.396;2022-12-18T10:43:09;103059.84;;;-3.65;70.54
57192;BME280;43052;52.588;13.396;2022-12-18T10:45:39;103064.06;;;-3.65;70.53
57192;BME280;43052;52.588;13.396;2022-12-18T10:48:18;103061.59;;;-3.74;70.41
57192;BME280;43052;52.588;13.396;2022-12-18T10:50:47;103060.88;;;-3.82;70.83
57192;BME280;43052;52.588;13.396;2022-12-18T10:53:19;103045.81;;;-3.79;70.84
57192;BME280;43052;52.588;13.396;2022-12-18T10:55:46;103044.44;;;-3.75;70.99
57192;BME280;43052;52.588;13.396;2022-12-18T10:58:22;103041.25;;;-3.72;71.22
57192;BME280;43052;52.588;13.396;2022-12-18T11:01:11;103037.19;;;-3.70;71.24
57192;BME280;43052;52.588;13.396;2022-12-18T11:06:04;103039.25;;;-3.66;71.40
57192;BME280;43052;52.588;13.396;2022-12-18T11:08:30;103037.47;;;-3.67;71.53
57192;BME280;43052;52.588;13.396;2022-12-18T11:10:58;103037.72;;;-3.64;71.50
57192;BME280;43052;52.588;13.396;2022-12-18T11:13:26;103036.28;;;-3.71;72.00
57192;BME280;43052;52.588;13.396;2022-12-18T11:15:51;103031.38;;;-3.78;72.03
57192;BME280;43052;52.588;13.396;2022-12-18T11:18:20;103032.19;;;-3.69;72.16
57192;BME280;43052;52.588;13.396;2022-12-18T11:20:52;103035.22;;;-3.54;71.96
57192;BME280;43052;52.588;13.396;2022-12-18T11:23:19;103033.75;;;-3.60;71.90
57192;BME280;43052;52.588;13.396;2022-12-18T11:25:54;103037.47;;;-3.67;72.49
57192;BME280;43052;52.588;13.396;2022-12-18T11:28:29;103041.81;;;-3.66;72.53
57192;BME280;43052;52.588;13.396;2022-12-18T11:31:15;103035.78;;;-3.67;72.08
57192;BME280;43052;52.588;13.396;2022-12-18T11:33:47;103031.63;;;-3.56;72.22
57192;BME280;43052;52.588;13.396;2022-12-18T11:36:15;103033.97;;;-3.49;72.33
57192;BME280;43052;52.588;13.396;2022-12-18T11:38:43;103029.63;;;-3.50;72.09
57192;BME280;43052;52.588;13.396;2022-12-18T11:41:34;103032.38;;;-3.57;72.14
57192;BME280;43052;52.588;13.396;2022-12-18T11:44:35;103035.31;;;-3.63;72.53
57192;BME280;43052;52.588;13.396;2022-12-18T11:47:18;103041.81;;;-3.66;72.57
57192;BME280;43052;52.588;13.396;2022-12-18T11:49:45;103046.38;;;-3.72;72.65
57192;BME280;43052;52.588;13.396;2022-12-18T11:52:22;103046.03;;;-3.67;72.68
57192;BME280;43052;52.588;13.396;2022-12-18T11:54:53;103053.97;;;-3.64;72.89
57192;BME280;43052;52.588;13.396;2022-12-18T11:57:36;103064.97;;;-3.65;72.86
57192;BME280;43052;52.588;13.396;2022-12-18T12:00:12;103065.84;;;-3.64;72.85
57192;BME280;43052;52.588;13.396;2022-12-18T12:11:08;103078.47;;;-3.47;73.08
57192;BME280;43052;52.588;13.396;2022-12-18T12:16:48;103072.72;;;-3.25;72.57
57192;BME280;43052;52.588;13.396;2022-12-18T12:19:35;103075.91;;;-3.27;72.45
57192;BME280;43052;52.588;13.396;2022-12-18T12:25:11;103081.09;;;-3.36;72.37
57192;BME280;43052;52.588;13.396;2022-12-18T12:30:37;103077.50;;;-3.38;72.14
57192;BME280;43052;52.588;13.396;2022-12-18T12:33:28;103081.44;;;-3.42;72.52
57192;BME280;43052;52.588;13.396;2022-12-18T12:36:30;103083.75;;;-3.45;72.49
57192;BME280;43052;52.588;13.396;2022-12-18T12:39:07;103089.63;;;-3.46;72.47
57192;BME280;43052;52.588;13.396;2022-12-18T12:41:33;103093.63;;;-3.39;72.75
57192;BME280;43052;52.588;13.396;2022-12-18T12:44:25;103093.31;;;-3.23;72.27
57192;BME280;43052;52.588;13.396;2022-12-18T12:46:52;103084.94;;;-3.12;72.33
57192;BME280;43052;52.588;13.396;2022-12-18T12:49:21;103087.22;;;-3.15;71.90
57192;BME280;43052;52.588;13.396;2022-12-18T12:51:57;103085.56;;;-3.15;72.16
57192;BME280;43052;52.588;13.396;2022-12-18T12:54:25;103060.38;;;-3.10;72.24
57192;BME280;43052;52.588;13.396;2022-12-18T12:57:17;103062.53;;;-3.15;71.87
57192;BME280;43052;52.588;13.396;2022-12-18T13:02:37;103036.31;;;-3.41;72.24
57192;BME280;43052;52.588;13.396;2022-12-18T13:05:16;103031.00;;;-3.53;72.26
57192;BME280;43052;52.588;13.396;2022-12-18T13:07:54;103024.16;;;-3.63;72.35
57192;BME280;43052;52.588;13.396;2022-12-18T13:10:25;103024.25;;;-3.72;72.52
57192;BME280;43052;52.588;13.396;2022-12-18T13:13:12;103034.75;;;-3.69;72.68
57192;BME280;43052;52.588;13.396;2022-12-18T13:15:47;103037.31;;;-3.69;72.50
57192;BME280;43052;52.588;13.396;2022-12-18T13:18:19;103040.91;;;-3.67;72.33
57192;BME280;43052;52.588;13.396;2022-12-18T13:20:47;103040.44;;;-3.63;72.69
57192;BME280;43052;52.588;13.396;2022-12-18T13:25:52;103046.31;;;-3.64;72.30